ブラジリア の空港の天気 - METARとTAF

ブラジリア国際空港 ( SBBR / BSB ) - ブラジル ブラジリア
飛行場実況気象(Metar)
観測時間10/16 03:00 BRT (10/16 06:00 UTC)
風向・風速不定 1m/s
視程10km以上
天気現象周辺で雷
全天の8割程度の雲 雲底高度 240m
少しの雲 雲底高度 610m
気温19℃
湿度94%
気圧1015hPa
METARSBBR 160600Z VRB02KT 9999 VCTS BKN008 FEW020CB 19/18 Q1015
過去の天気等 Google飛行場航空写真 Wunderground天気予報

過去48時間のMETAR

飛行場予報(TAF)
発表時間: 10/16 01:00 BRT (10/16 04:00 UTC)
予報対象時間: 16日3時 BRT ~ 17日3時 BRT
風向・風速南南西 2m/s
視程10km以上
なし
16日10時 BRT ~ 16日12時 BRT に徐々に
風向・風速北東 3m/s
視程10km以上
全天の4割程度の雲 雲底高度 910m
16日13時 BRT ~ 16日14時 BRT に徐々に
全天の4割程度の雲 雲底高度 1070m
少しの塔状積雲 雲底高度 910m
16日17時 BRT ~ 17日1時 BRT に一時的に
視程8000m
天気現象雷雨
全天の4割程度の雲 雲底高度 910m
少しの積乱雲 雲底高度 1370m
16日17時 BRT ~ 16日19時 BRT に徐々に
風向・風速南西 3m/s
少しの雲 雲底高度 910m
TAF SBBR 160400Z 1606/1706 20003KT CAVOK TN19/1609Z TX28/1618Z
BECMG 1613/1615 04005KT 9999 SCT030
BECMG 1616/1617 SCT035 FEW030TCU
TEMPO 1620/1704 8000 TSRA SCT030 FEW045CB
BECMG 1620/1622 22005KT FEW030 RMK PEJ